sensor_id;sensor_type;location;lat;lon;timestamp;pressure;altitude;pressure_sealevel;temperature;humidity
7748;BME280;3918;42.564;23.164;2023-02-10T00:00:32;-11650.84;;;-142.29;100.00
7748;BME280;3918;42.564;23.164;2023-02-10T00:02:59;-11650.84;;;-142.29;100.00
7748;BME280;3918;42.564;23.164;2023-02-10T00:05:26;-11650.84;;;-142.29;100.00
7748;BME280;3918;42.564;23.164;2023-02-10T00:07:53;-11650.84;;;-142.29;100.00
7748;BME280;3918;42.564;23.164;2023-02-10T00:10:21;-11650.84;;;-142.29;100.00
7748;BME280;3918;42.564;23.164;2023-02-10T00:12:47;-11650.84;;;-142.29;100.00
7748;BME280;3918;42.564;23.164;2023-02-10T00:15:14;-11650.84;;;-142.29;100.00
7748;BME280;3918;42.564;23.164;2023-02-10T00:17:41;-11650.84;;;-142.29;100.00
7748;BME280;3918;42.564;23.164;2023-02-10T00:20:08;-11650.84;;;-142.29;100.00
7748;BME280;3918;42.564;23.164;2023-02-10T00:22:35;-11650.84;;;-142.29;100.00
7748;BME280;3918;42.564;23.164;2023-02-10T00:25:03;-11650.84;;;-142.29;100.00
7748;BME280;3918;42.564;23.164;2023-02-10T00:27:31;-11650.84;;;-142.29;100.00
7748;BME280;3918;42.564;23.164;2023-02-10T00:29:58;-11650.84;;;-142.29;100.00
7748;BME280;3918;42.564;23.164;2023-02-10T00:32:24;-11650.84;;;-142.29;100.00
7748;BME280;3918;42.564;23.164;2023-02-10T00:34:51;-11650.84;;;-142.29;100.00
7748;BME280;3918;42.564;23.164;2023-02-10T00:37:18;-11650.84;;;-142.29;100.00
7748;BME280;3918;42.564;23.164;2023-02-10T00:39:45;-11650.84;;;-142.29;100.00
7748;BME280;3918;42.564;23.164;2023-02-10T00:42:11;-11650.84;;;-142.29;100.00
7748;BME280;3918;42.564;23.164;2023-02-10T00:44:40;-11650.84;;;-142.29;100.00
7748;BME280;3918;42.564;23.164;2023-02-10T00:47:06;-11650.84;;;-142.29;100.00
7748;BME280;3918;42.564;23.164;2023-02-10T00:49:33;-11650.84;;;-142.29;100.00
7748;BME280;3918;42.564;23.164;2023-02-10T00:52:00;-11650.84;;;-142.29;100.00
7748;BME280;3918;42.564;23.164;2023-02-10T00:54:26;-11650.84;;;-142.29;100.00
7748;BME280;3918;42.564;23.164;2023-02-10T00:56:53;-11650.84;;;-142.29;100.00
7748;BME280;3918;42.564;23.164;2023-02-10T00:59:20;-11650.84;;;-142.29;100.00
7748;BME280;3918;42.564;23.164;2023-02-10T01:01:48;-11650.84;;;-142.29;100.00
7748;BME280;3918;42.564;23.164;2023-02-10T01:04:15;-11650.84;;;-142.29;100.00
7748;BME280;3918;42.564;23.164;2023-02-10T01:06:42;-11650.84;;;-142.29;100.00
7748;BME280;3918;42.564;23.164;2023-02-10T01:09:08;-11650.84;;;-142.29;100.00
7748;BME280;3918;42.564;23.164;2023-02-10T01:11:35;-11650.84;;;-142.29;100.00
7748;BME280;3918;42.564;23.164;2023-02-10T01:14:02;-11650.84;;;-142.29;100.00
7748;BME280;3918;42.564;23.164;2023-02-10T01:16:29;-11650.84;;;-142.29;100.00
7748;BME280;3918;42.564;23.164;2023-02-10T01:18:58;-11650.84;;;-142.29;100.00
7748;BME280;3918;42.564;23.164;2023-02-10T01:21:25;-11650.84;;;-142.29;100.00
7748;BME280;3918;42.564;23.164;2023-02-10T01:23:52;-11650.84;;;-142.29;100.00
7748;BME280;3918;42.564;23.164;2023-02-10T01:26:19;-11650.84;;;-142.29;100.00
7748;BME280;3918;42.564;23.164;2023-02-10T01:28:45;-11650.84;;;-142.29;100.00
7748;BME280;3918;42.564;23.164;2023-02-10T01:31:14;-11650.84;;;-142.29;100.00
7748;BME280;3918;42.564;23.164;2023-02-10T01:33:41;-11650.84;;;-142.29;100.00
7748;BME280;3918;42.564;23.164;2023-02-10T01:36:11;-11650.84;;;-142.29;100.00
7748;BME280;3918;42.564;23.164;2023-02-10T01:38:38;-11650.84;;;-142.29;100.00
7748;BME280;3918;42.564;23.164;2023-02-10T01:41:06;-11650.84;;;-142.29;100.00
7748;BME280;3918;42.564;23.164;2023-02-10T01:43:51;-11650.84;;;-142.29;100.00
7748;BME280;3918;42.564;23.164;2023-02-10T01:46:19;-11650.84;;;-142.29;100.00
7748;BME280;3918;42.564;23.164;2023-02-10T01:48:46;-11650.84;;;-142.29;100.00
7748;BME280;3918;42.564;23.164;2023-02-10T01:51:15;-11650.84;;;-142.29;100.00
7748;BME280;3918;42.564;23.164;2023-02-10T01:53:45;-11650.84;;;-142.29;100.00
7748;BME280;3918;42.564;23.164;2023-02-10T01:56:14;-11650.84;;;-142.29;100.00
7748;BME280;3918;42.564;23.164;2023-02-10T01:58:42;-11650.84;;;-142.29;100.00
7748;BME280;3918;42.564;23.164;2023-02-10T02:01:10;-11650.84;;;-142.29;100.00
7748;BME280;3918;42.564;23.164;2023-02-10T02:03:37;-11650.84;;;-142.29;100.00
7748;BME280;3918;42.564;23.164;2023-02-10T02:06:06;-11650.84;;;-142.29;100.00
7748;BME280;3918;42.564;23.164;2023-02-10T02:08:35;-11650.84;;;-142.29;100.00
7748;BME280;3918;42.564;23.164;2023-02-10T02:11:13;-11650.84;;;-142.29;100.00
7748;BME280;3918;42.564;23.164;2023-02-10T02:14:09;-11650.84;;;-142.29;100.00
7748;BME280;3918;42.564;23.164;2023-02-10T02:16:59;-11650.84;;;-142.29;100.00
7748;BME280;3918;42.564;23.164;2023-02-10T02:20:08;-11650.84;;;-142.29;100.00
7748;BME280;3918;42.564;23.164;2023-02-10T02:23:13;-11650.84;;;-142.29;100.00
7748;BME280;3918;42.564;23.164;2023-02-10T02:26:21;-11650.84;;;-142.29;100.00
7748;BME280;3918;42.564;23.164;2023-02-10T02:29:09;-11650.84;;;-142.29;100.00
7748;BME280;3918;42.564;23.164;2023-02-10T02:31:51;-11650.84;;;-142.29;100.00
7748;BME280;3918;42.564;23.164;2023-02-10T02:34:26;-11650.84;;;-142.29;100.00
7748;BME280;3918;42.564;23.164;2023-02-10T02:36:58;-11650.84;;;-142.29;100.00
7748;BME280;3918;42.564;23.164;2023-02-10T02:39:27;-11650.84;;;-142.29;100.00
7748;BME280;3918;42.564;23.164;2023-02-10T02:42:14;-11650.84;;;-142.29;100.00
7748;BME280;3918;42.564;23.164;2023-02-10T02:44:41;-11650.84;;;-142.29;100.00
7748;BME280;3918;42.564;23.164;2023-02-10T02:47:15;-11650.84;;;-142.29;100.00
7748;BME280;3918;42.564;23.164;2023-02-10T02:49:50;-11650.84;;;-142.29;100.00
7748;BME280;3918;42.564;23.164;2023-02-10T02:52:25;-11650.84;;;-142.29;100.00
7748;BME280;3918;42.564;23.164;2023-02-10T02:54:59;-11650.84;;;-142.29;100.00
7748;BME280;3918;42.564;23.164;2023-02-10T02:57:36;-11650.84;;;-142.29;100.00
7748;BME280;3918;42.564;23.164;2023-02-10T03:00:11;-11650.84;;;-142.29;100.00
7748;BME280;3918;42.564;23.164;2023-02-10T03:02:40;-11650.84;;;-142.29;100.00
7748;BME280;3918;42.564;23.164;2023-02-10T03:05:08;-11650.84;;;-142.29;100.00
7748;BME280;3918;42.564;23.164;2023-02-10T03:07:34;-11650.84;;;-142.29;100.00
7748;BME280;3918;42.564;23.164;2023-02-10T03:10:02;-11650.84;;;-142.29;100.00
7748;BME280;3918;42.564;23.164;2023-02-10T03:12:28;-11650.84;;;-142.29;100.00
7748;BME280;3918;42.564;23.164;2023-02-10T03:14:55;-11650.84;;;-142.29;100.00
7748;BME280;3918;42.564;23.164;2023-02-10T03:17:22;-11650.84;;;-142.29;100.00
7748;BME280;3918;42.564;23.164;2023-02-10T03:19:50;-11650.84;;;-142.29;100.00
7748;BME280;3918;42.564;23.164;2023-02-10T03:22:17;-11650.84;;;-142.29;100.00
7748;BME280;3918;42.564;23.164;2023-02-10T03:24:44;-11650.84;;;-142.29;100.00
7748;BME280;3918;42.564;23.164;2023-02-10T03:27:10;-11650.84;;;-142.29;100.00
7748;BME280;3918;42.564;23.164;2023-02-10T03:29:37;-11650.84;;;-142.29;100.00
7748;BME280;3918;42.564;23.164;2023-02-10T03:32:04;-11650.84;;;-142.29;100.00
7748;BME280;3918;42.564;23.164;2023-02-10T03:34:31;-11650.84;;;-142.29;100.00
7748;BME280;3918;42.564;23.164;2023-02-10T03:37:00;-11650.84;;;-142.29;100.00
7748;BME280;3918;42.564;23.164;2023-02-10T03:39:27;-11650.84;;;-142.29;100.00
7748;BME280;3918;42.564;23.164;2023-02-10T03:41:53;-11650.84;;;-142.29;100.00
7748;BME280;3918;42.564;23.164;2023-02-10T03:44:20;-11650.84;;;-142.29;100.00
7748;BME280;3918;42.564;23.164;2023-02-10T03:46:47;-11650.84;;;-142.29;100.00
7748;BME280;3918;42.564;23.164;2023-02-10T03:49:14;-11650.84;;;-142.29;100.00
7748;BME280;3918;42.564;23.164;2023-02-10T03:51:40;-11650.84;;;-142.29;100.00
7748;BME280;3918;42.564;23.164;2023-02-10T03:54:09;-11650.84;;;-142.29;100.00
7748;BME280;3918;42.564;23.164;2023-02-10T03:56:35;-11650.84;;;-142.29;100.00
7748;BME280;3918;42.564;23.164;2023-02-10T03:59:03;-11650.84;;;-142.29;100.00
7748;BME280;3918;42.564;23.164;2023-02-10T04:01:30;-11650.84;;;-142.29;100.00
7748;BME280;3918;42.564;23.164;2023-02-10T04:03:58;-11650.84;;;-142.29;100.00
7748;BME280;3918;42.564;23.164;2023-02-10T04:06:25;-11650.84;;;-142.29;100.00
7748;BME280;3918;42.564;23.164;2023-02-10T04:08:52;-11650.84;;;-142.29;100.00
7748;BME280;3918;42.564;23.164;2023-02-10T04:11:20;-11650.84;;;-142.29;100.00
7748;BME280;3918;42.564;23.164;2023-02-10T04:13:47;-11650.84;;;-142.29;100.00
7748;BME280;3918;42.564;23.164;2023-02-10T04:16:15;-11650.84;;;-142.29;100.00
7748;BME280;3918;42.564;23.164;2023-02-10T04:18:44;-11650.84;;;-142.29;100.00
7748;BME280;3918;42.564;23.164;2023-02-10T04:21:12;-11650.84;;;-142.29;100.00
7748;BME280;3918;42.564;23.164;2023-02-10T04:23:39;-11650.84;;;-142.29;100.00
7748;BME280;3918;42.564;23.164;2023-02-10T04:26:05;-11650.84;;;-142.29;100.00
7748;BME280;3918;42.564;23.164;2023-02-10T04:28:34;-11650.84;;;-142.29;100.00
7748;BME280;3918;42.564;23.164;2023-02-10T04:31:01;-11650.84;;;-142.29;100.00
7748;BME280;3918;42.564;23.164;2023-02-10T04:33:28;-11650.84;;;-142.29;100.00
7748;BME280;3918;42.564;23.164;2023-02-10T04:35:55;-11650.84;;;-142.29;100.00
7748;BME280;3918;42.564;23.164;2023-02-10T04:38:23;-11650.84;;;-142.29;100.00
7748;BME280;3918;42.564;23.164;2023-02-10T04:40:50;-11650.84;;;-142.29;100.00
7748;BME280;3918;42.564;23.164;2023-02-10T04:43:17;-11650.84;;;-142.29;100.00
7748;BME280;3918;42.564;23.164;2023-02-10T04:45:45;-11650.84;;;-142.29;100.00
7748;BME280;3918;42.564;23.164;2023-02-10T04:48:12;-11650.84;;;-142.29;100.00
7748;BME280;3918;42.564;23.164;2023-02-10T04:50:40;-11650.84;;;-142.29;100.00
7748;BME280;3918;42.564;23.164;2023-02-10T04:53:07;-11650.84;;;-142.29;100.00
7748;BME280;3918;42.564;23.164;2023-02-10T04:55:34;-11650.84;;;-142.29;100.00
7748;BME280;3918;42.564;23.164;2023-02-10T04:58:01;-11650.84;;;-142.29;100.00
7748;BME280;3918;42.564;23.164;2023-02-10T05:00:28;-11650.84;;;-142.29;100.00
7748;BME280;3918;42.564;23.164;2023-02-10T05:02:56;-11650.84;;;-142.29;100.00
7748;BME280;3918;42.564;23.164;2023-02-10T05:05:23;-11650.84;;;-142.29;100.00
7748;BME280;3918;42.564;23.164;2023-02-10T05:07:50;-11650.84;;;-142.29;100.00
7748;BME280;3918;42.564;23.164;2023-02-10T05:10:17;-11650.84;;;-142.29;100.00
7748;BME280;3918;42.564;23.164;2023-02-10T05:12:44;-11650.84;;;-142.29;100.00
7748;BME280;3918;42.564;23.164;2023-02-10T05:15:11;-11650.84;;;-142.29;100.00
7748;BME280;3918;42.564;23.164;2023-02-10T05:17:38;-11650.84;;;-142.29;100.00
7748;BME280;3918;42.564;23.164;2023-02-10T05:20:08;-11650.84;;;-142.29;100.00
7748;BME280;3918;42.564;23.164;2023-02-10T05:22:35;-11650.84;;;-142.29;100.00
7748;BME280;3918;42.564;23.164;2023-02-10T05:25:02;-11650.84;;;-142.29;100.00
7748;BME280;3918;42.564;23.164;2023-02-10T05:27:29;-11650.84;;;-142.29;100.00
7748;BME280;3918;42.564;23.164;2023-02-10T05:29:55;-11650.84;;;-142.29;100.00
7748;BME280;3918;42.564;23.164;2023-02-10T05:32:22;-11650.84;;;-142.29;100.00
7748;BME280;3918;42.564;23.164;2023-02-10T05:34:49;-11650.84;;;-142.29;100.00
7748;BME280;3918;42.564;23.164;2023-02-10T05:37:18;-11650.84;;;-142.29;100.00
7748;BME280;3918;42.564;23.164;2023-02-10T05:39:44;-11650.84;;;-142.29;100.00
7748;BME280;3918;42.564;23.164;2023-02-10T05:42:11;-11650.84;;;-142.29;100.00
7748;BME280;3918;42.564;23.164;2023-02-10T05:44:38;-11650.84;;;-142.29;100.00
7748;BME280;3918;42.564;23.164;2023-02-10T05:47:05;-11650.84;;;-142.29;100.00
7748;BME280;3918;42.564;23.164;2023-02-10T05:49:32;-11650.84;;;-142.29;100.00
7748;BME280;3918;42.564;23.164;2023-02-10T05:51:58;-11650.84;;;-142.29;100.00
7748;BME280;3918;42.564;23.164;2023-02-10T05:54:26;-11650.84;;;-142.29;100.00
7748;BME280;3918;42.564;23.164;2023-02-10T05:56:54;-11650.84;;;-142.29;100.00
7748;BME280;3918;42.564;23.164;2023-02-10T05:59:21;-11650.84;;;-142.29;100.00
7748;BME280;3918;42.564;23.164;2023-02-10T06:01:48;-11650.84;;;-142.29;100.00
7748;BME280;3918;42.564;23.164;2023-02-10T06:04:15;-11650.84;;;-142.29;100.00
7748;BME280;3918;42.564;23.164;2023-02-10T06:06:42;-11650.84;;;-142.29;100.00
7748;BME280;3918;42.564;23.164;2023-02-10T06:09:08;-11650.84;;;-142.29;100.00
7748;BME280;3918;42.564;23.164;2023-02-10T06:11:36;-11650.84;;;-142.29;100.00
7748;BME280;3918;42.564;23.164;2023-02-10T06:14:03;-11650.84;;;-142.29;100.00
7748;BME280;3918;42.564;23.164;2023-02-10T06:16:30;-11650.84;;;-142.29;74.61
7748;BME280;3918;42.564;23.164;2023-02-10T06:18:57;-11650.84;;;-142.29;52.60
7748;BME280;3918;42.564;23.164;2023-02-10T06:21:24;-11650.84;;;-142.29;53.08
7748;BME280;3918;42.564;23.164;2023-02-10T06:23:51;-11650.84;;;-142.29;53.43
7748;BME280;3918;42.564;23.164;2023-02-10T06:26:18;-11650.84;;;-142.29;53.05
7748;BME280;3918;42.564;23.164;2023-02-10T06:28:46;-11650.84;;;-142.29;42.87
7748;BME280;3918;42.564;23.164;2023-02-10T06:31:13;-11650.84;;;-142.29;36.72
7748;BME280;3918;42.564;23.164;2023-02-10T06:33:40;-11650.84;;;-142.29;34.42
7748;BME280;3918;42.564;23.164;2023-02-10T06:36:08;-11650.84;;;-142.29;34.13
7748;BME280;3918;42.564;23.164;2023-02-10T06:38:36;-11650.84;;;-142.29;34.24
7748;BME280;3918;42.564;23.164;2023-02-10T06:41:03;-11650.84;;;-142.29;32.64
7748;BME280;3918;42.564;23.164;2023-02-10T06:43:30;-11650.84;;;-142.29;32.56
7748;BME280;3918;42.564;23.164;2023-02-10T06:45:58;-11650.84;;;-142.29;31.85
7748;BME280;3918;42.564;23.164;2023-02-10T06:48:25;-11650.84;;;-142.29;32.26
7748;BME280;3918;42.564;23.164;2023-02-10T06:50:52;-11650.84;;;-142.29;32.08
7748;BME280;3918;42.564;23.164;2023-02-10T06:53:19;-11650.84;;;-142.29;32.29
7748;BME280;3918;42.564;23.164;2023-02-10T06:55:46;-11650.84;;;-142.29;31.56
7748;BME280;3918;42.564;23.164;2023-02-10T06:58:14;-11650.84;;;-142.29;31.86
7748;BME280;3918;42.564;23.164;2023-02-10T07:00:41;-11650.84;;;-142.29;30.82
7748;BME280;3918;42.564;23.164;2023-02-10T07:03:11;-11650.84;;;-142.29;30.58
7748;BME280;3918;42.564;23.164;2023-02-10T07:05:39;-11650.84;;;-142.29;30.18
7748;BME280;3918;42.564;23.164;2023-02-10T07:08:05;-11650.84;;;-142.29;30.21
7748;BME280;3918;42.564;23.164;2023-02-10T07:10:32;-11650.84;;;-142.29;29.32
7748;BME280;3918;42.564;23.164;2023-02-10T07:12:59;-11650.84;;;-142.29;29.28
7748;BME280;3918;42.564;23.164;2023-02-10T07:15:26;-11650.84;;;-142.29;29.63
7748;BME280;3918;42.564;23.164;2023-02-10T07:17:53;-11650.84;;;-142.29;29.67
7748;BME280;3918;42.564;23.164;2023-02-10T07:20:21;-11650.84;;;-142.29;29.62
7748;BME280;3918;42.564;23.164;2023-02-10T07:22:49;-11650.84;;;-142.29;29.23
7748;BME280;3918;42.564;23.164;2023-02-10T07:25:17;-11650.84;;;-142.29;28.53
7748;BME280;3918;42.564;23.164;2023-02-10T07:27:44;-11650.84;;;-142.29;29.09
7748;BME280;3918;42.564;23.164;2023-02-10T07:30:11;-11650.84;;;-142.29;29.25
7748;BME280;3918;42.564;23.164;2023-02-10T07:32:38;-11650.84;;;-142.29;28.63
7748;BME280;3918;42.564;23.164;2023-02-10T07:35:07;-11650.84;;;-142.29;28.77
7748;BME280;3918;42.564;23.164;2023-02-10T07:37:35;-11650.84;;;-142.29;28.73
7748;BME280;3918;42.564;23.164;2023-02-10T07:40:03;-11650.84;;;-142.29;27.95
7748;BME280;3918;42.564;23.164;2023-02-10T07:42:30;-11650.84;;;-142.29;27.64
7748;BME280;3918;42.564;23.164;2023-02-10T07:44:57;-11650.84;;;-142.29;nan
7748;BME280;3918;42.564;23.164;2023-02-10T07:47:24;-11650.84;;;-142.29;nan
7748;BME280;3918;42.564;23.164;2023-02-10T07:49:51;-11650.84;;;-142.29;nan
7748;BME280;3918;42.564;23.164;2023-02-10T07:52:19;-11650.84;;;-142.29;nan
7748;BME280;3918;42.564;23.164;2023-02-10T07:54:48;-11650.84;;;-142.29;nan
7748;BME280;3918;42.564;23.164;2023-02-10T07:57:15;-11650.84;;;-142.29;nan
7748;BME280;3918;42.564;23.164;2023-02-10T07:59:41;-11650.84;;;-142.29;nan
7748;BME280;3918;42.564;23.164;2023-02-10T08:02:10;-11650.84;;;-142.29;nan
7748;BME280;3918;42.564;23.164;2023-02-10T08:04:37;-11650.84;;;-142.29;nan
7748;BME280;3918;42.564;23.164;2023-02-10T08:07:04;-11650.84;;;-142.29;nan
7748;BME280;3918;42.564;23.164;2023-02-10T08:09:31;-11650.84;;;-142.29;nan
7748;BME280;3918;42.564;23.164;2023-02-10T08:11:59;-11650.84;;;-142.29;nan
7748;BME280;3918;42.564;23.164;2023-02-10T08:14:26;-11650.84;;;-142.29;nan
7748;BME280;3918;42.564;23.164;2023-02-10T08:16:53;-11650.84;;;-142.29;nan
7748;BME280;3918;42.564;23.164;2023-02-10T08:19:20;-11650.84;;;-142.29;nan
7748;BME280;3918;42.564;23.164;2023-02-10T08:21:46;-11650.84;;;-142.29;nan
7748;BME280;3918;42.564;23.164;2023-02-10T08:24:13;-11650.84;;;-142.29;nan
7748;BME280;3918;42.564;23.164;2023-02-10T08:26:41;-11650.84;;;-142.29;nan
7748;BME280;3918;42.564;23.164;2023-02-10T08:29:09;-11650.84;;;-142.29;nan
7748;BME280;3918;42.564;23.164;2023-02-10T08:31:37;-11650.84;;;-142.29;nan
7748;BME280;3918;42.564;23.164;2023-02-10T08:34:04;-11650.84;;;-142.29;nan
7748;BME280;3918;42.564;23.164;2023-02-10T08:36:31;-11650.84;;;-142.29;nan
7748;BME280;3918;42.564;23.164;2023-02-10T08:38:58;-11650.84;;;-142.29;nan
7748;BME280;3918;42.564;23.164;2023-02-10T08:41:25;-11650.84;;;-142.29;nan
7748;BME280;3918;42.564;23.164;2023-02-10T08:43:56;-11650.84;;;-142.29;nan
7748;BME280;3918;42.564;23.164;2023-02-10T08:46:25;-11650.84;;;-142.29;nan
7748;BME280;3918;42.564;23.164;2023-02-10T08:48:52;-11650.84;;;-142.29;nan
7748;BME280;3918;42.564;23.164;2023-02-10T08:51:18;-11650.84;;;-142.29;nan
7748;BME280;3918;42.564;23.164;2023-02-10T08:53:45;-11650.84;;;-142.29;nan
7748;BME280;3918;42.564;23.164;2023-02-10T08:56:15;-11650.84;;;-142.29;nan
7748;BME280;3918;42.564;23.164;2023-02-10T08:58:43;-11650.84;;;-142.29;nan
7748;BME280;3918;42.564;23.164;2023-02-10T09:01:11;-11650.84;;;-142.29;nan
7748;BME280;3918;42.564;23.164;2023-02-10T09:03:40;-11650.84;;;-142.29;nan
7748;BME280;3918;42.564;23.164;2023-02-10T09:06:12;-11650.84;;;-142.29;nan
7748;BME280;3918;42.564;23.164;2023-02-10T09:08:40;-11650.84;;;-142.29;nan
7748;BME280;3918;42.564;23.164;2023-02-10T09:11:08;-11650.84;;;-142.29;nan
7748;BME280;3918;42.564;23.164;2023-02-10T09:13:34;-11650.84;;;-142.29;nan
7748;BME280;3918;42.564;23.164;2023-02-10T09:16:01;-11650.84;;;-142.29;nan
7748;BME280;3918;42.564;23.164;2023-02-10T09:18:28;-11650.84;;;-142.29;nan
7748;BME280;3918;42.564;23.164;2023-02-10T09:20:58;-11650.84;;;-142.29;nan
7748;BME280;3918;42.564;23.164;2023-02-10T09:23:25;-11650.84;;;-142.29;nan
7748;BME280;3918;42.564;23.164;2023-02-10T09:25:53;-11650.84;;;-142.29;nan
7748;BME280;3918;42.564;23.164;2023-02-10T09:28:19;-11650.84;;;-142.29;nan
7748;BME280;3918;42.564;23.164;2023-02-10T09:30:47;-11650.84;;;-142.29;nan
7748;BME280;3918;42.564;23.164;2023-02-10T09:33:14;-11650.84;;;-142.29;nan
7748;BME280;3918;42.564;23.164;2023-02-10T09:35:41;-11650.84;;;-142.29;nan
7748;BME280;3918;42.564;23.164;2023-02-10T09:38:10;-11650.84;;;-142.29;nan
7748;BME280;3918;42.564;23.164;2023-02-10T09:40:47;-11650.84;;;-142.29;nan
7748;BME280;3918;42.564;23.164;2023-02-10T09:46:12;-11650.84;;;-142.29;nan
7748;BME280;3918;42.564;23.164;2023-02-10T09:48:53;-11650.84;;;-142.29;nan
7748;BME280;3918;42.564;23.164;2023-02-10T09:51:37;-11650.84;;;-142.29;nan
7748;BME280;3918;42.564;23.164;2023-02-10T09:54:09;-11650.84;;;-142.29;nan
7748;BME280;3918;42.564;23.164;2023-02-10T09:56:38;-11650.84;;;-142.29;nan
7748;BME280;3918;42.564;23.164;2023-02-10T09:59:06;-11650.84;;;-142.29;nan
7748;BME280;3918;42.564;23.164;2023-02-10T10:01:40;-11650.84;;;-142.29;nan
7748;BME280;3918;42.564;23.164;2023-02-10T10:04:10;-11650.84;;;-142.29;nan
7748;BME280;3918;42.564;23.164;2023-02-10T10:06:40;-11650.84;;;-142.29;nan
7748;BME280;3918;42.564;23.164;2023-02-10T10:09:18;-11650.84;;;-142.29;nan
7748;BME280;3918;42.564;23.164;2023-02-10T10:11:49;-11650.84;;;-142.29;nan
7748;BME280;3918;42.564;23.164;2023-02-10T10:14:18;-11650.84;;;-142.29;nan
7748;BME280;3918;42.564;23.164;2023-02-10T10:17:15;-11650.84;;;-142.29;nan
7748;BME280;3918;42.564;23.164;2023-02-10T10:19:55;-11650.84;;;-142.29;nan
7748;BME280;3918;42.564;23.164;2023-02-10T10:22:36;-11650.84;;;-142.29;nan
7748;BME280;3918;42.564;23.164;2023-02-10T10:25:20;-11650.84;;;-142.29;nan
7748;BME280;3918;42.564;23.164;2023-02-10T10:27:55;-11650.84;;;-142.29;nan
7748;BME280;3918;42.564;23.164;2023-02-10T10:30:33;-11650.84;;;-142.29;nan
7748;BME280;3918;42.564;23.164;2023-02-10T10:33:11;-11650.84;;;-142.29;nan
7748;BME280;3918;42.564;23.164;2023-02-10T10:35:42;-11650.84;;;-142.29;nan
7748;BME280;3918;42.564;23.164;2023-02-10T10:38:12;-11650.84;;;-142.29;nan
7748;BME280;3918;42.564;23.164;2023-02-10T10:40:43;-11650.84;;;-142.29;nan
7748;BME280;3918;42.564;23.164;2023-02-10T10:43:14;-11650.84;;;-142.29;nan
7748;BME280;3918;42.564;23.164;2023-02-10T10:45:48;-11650.84;;;-142.29;nan
7748;BME280;3918;42.564;23.164;2023-02-10T10:48:17;-11650.84;;;-142.29;nan
7748;BME280;3918;42.564;23.164;2023-02-10T10:50:49;-11650.84;;;-142.29;nan
7748;BME280;3918;42.564;23.164;2023-02-10T10:53:18;-11650.84;;;-142.29;nan
7748;BME280;3918;42.564;23.164;2023-02-10T10:55:49;-11650.84;;;-142.29;nan
7748;BME280;3918;42.564;23.164;2023-02-10T10:58:23;-11650.84;;;-142.29;nan
7748;BME280;3918;42.564;23.164;2023-02-10T11:00:53;-11650.84;;;-142.29;nan
7748;BME280;3918;42.564;23.164;2023-02-10T11:03:20;-11650.84;;;-142.29;nan
7748;BME280;3918;42.564;23.164;2023-02-10T11:05:58;-11650.84;;;-142.29;nan
7748;BME280;3918;42.564;23.164;2023-02-10T11:08:27;-11650.84;;;-142.29;nan
7748;BME280;3918;42.564;23.164;2023-02-10T11:10:58;-11650.84;;;-142.29;nan
7748;BME280;3918;42.564;23.164;2023-02-10T11:13:28;-11650.84;;;-142.29;nan
7748;BME280;3918;42.564;23.164;2023-02-10T11:16:01;-11650.84;;;-142.29;nan
7748;BME280;3918;42.564;23.164;2023-02-10T11:18:28;-11650.84;;;-142.29;nan
7748;BME280;3918;42.564;23.164;2023-02-10T11:20:57;-11650.84;;;-142.29;nan
7748;BME280;3918;42.564;23.164;2023-02-10T11:23:26;-11650.84;;;-142.29;nan
7748;BME280;3918;42.564;23.164;2023-02-10T11:26:01;-11650.84;;;-142.29;nan
7748;BME280;3918;42.564;23.164;2023-02-10T11:28:30;-11650.84;;;-142.29;nan
7748;BME280;3918;42.564;23.164;2023-02-10T11:31:00;-11650.84;;;-142.29;nan
7748;BME280;3918;42.564;23.164;2023-02-10T11:33:29;-11650.84;;;-142.29;nan
7748;BME280;3918;42.564;23.164;2023-02-10T11:36:00;-11650.84;;;-142.29;nan
7748;BME280;3918;42.564;23.164;2023-02-10T11:38:28;-11650.84;;;-142.29;nan
7748;BME280;3918;42.564;23.164;2023-02-10T11:40:57;-11650.84;;;-142.29;nan
7748;BME280;3918;42.564;23.164;2023-02-10T11:43:30;-11650.84;;;-142.29;nan
7748;BME280;3918;42.564;23.164;2023-02-10T11:45:58;-11650.84;;;-142.29;nan
7748;BME280;3918;42.564;23.164;2023-02-10T11:48:26;-11650.84;;;-142.29;nan
7748;BME280;3918;42.564;23.164;2023-02-10T11:51:04;-11650.84;;;-142.29;nan
7748;BME280;3918;42.564;23.164;2023-02-10T11:53:34;-11650.84;;;-142.29;nan
7748;BME280;3918;42.564;23.164;2023-02-10T11:56:06;-11650.84;;;-142.29;nan
7748;BME280;3918;42.564;23.164;2023-02-10T11:58:45;-11650.84;;;-142.29;nan
7748;BME280;3918;42.564;23.164;2023-02-10T12:01:44;-11650.84;;;-142.29;nan
7748;BME280;3918;42.564;23.164;2023-02-10T12:04:38;-11650.84;;;-142.29;nan
7748;BME280;3918;42.564;23.164;2023-02-10T12:07:17;-11650.84;;;-142.29;nan
7748;BME280;3918;42.564;23.164;2023-02-10T12:09:48;-11650.84;;;-142.29;nan
7748;BME280;3918;42.564;23.164;2023-02-10T12:12:26;-11650.84;;;-142.29;nan
7748;BME280;3918;42.564;23.164;2023-02-10T12:15:06;-11650.84;;;-142.29;nan
7748;BME280;3918;42.564;23.164;2023-02-10T12:17:40;-11650.84;;;-142.29;nan
7748;BME280;3918;42.564;23.164;2023-02-10T12:20:24;-11650.84;;;-142.29;nan
7748;BME280;3918;42.564;23.164;2023-02-10T12:23:23;-11650.84;;;-142.29;nan
7748;BME280;3918;42.564;23.164;2023-02-10T12:25:59;-11650.84;;;-142.29;nan
7748;BME280;3918;42.564;23.164;2023-02-10T12:28:36;-11650.84;;;-142.29;nan
7748;BME280;3918;42.564;23.164;2023-02-10T12:31:19;-11650.84;;;-142.29;nan
7748;BME280;3918;42.564;23.164;2023-02-10T12:34:02;-11650.84;;;-142.29;nan
7748;BME280;3918;42.564;23.164;2023-02-10T12:36:36;-11650.84;;;-142.29;nan
7748;BME280;3918;42.564;23.164;2023-02-10T12:39:13;-11650.84;;;-142.29;nan
7748;BME280;3918;42.564;23.164;2023-02-10T12:41:47;-11650.84;;;-142.29;nan
7748;BME280;3918;42.564;23.164;2023-02-10T12:44:31;-11650.84;;;-142.29;nan
7748;BME280;3918;42.564;23.164;2023-02-10T12:47:07;-11650.84;;;-142.29;nan
7748;BME280;3918;42.564;23.164;2023-02-10T12:49:51;-11650.84;;;-142.29;nan
7748;BME280;3918;42.564;23.164;2023-02-10T12:52:27;-11650.84;;;-142.29;nan
7748;BME280;3918;42.564;23.164;2023-02-10T12:55:00;-11650.84;;;-142.29;nan
7748;BME280;3918;42.564;23.164;2023-02-10T12:57:33;-11650.84;;;-142.29;nan
7748;BME280;3918;42.564;23.164;2023-02-10T13:00:06;-11650.84;;;-142.29;nan